createdAt,value
2022-09-20T00:01:16.345Z,9.40
2022-09-20T00:03:47.434Z,7.93
2022-09-20T00:06:18.955Z,9.34
2022-09-20T00:08:47.047Z,9.42
2022-09-20T00:11:19.999Z,6.34
2022-09-20T00:13:51.095Z,8.91
2022-09-20T00:16:27.245Z,9.31
2022-09-20T00:18:56.753Z,9.26
2022-09-20T00:21:27.754Z,9.31
2022-09-20T00:23:55.452Z,9.31
2022-09-20T00:26:23.156Z,8.40
2022-09-20T00:28:50.661Z,8.78
2022-09-20T00:31:18.587Z,9.14
2022-09-20T00:34:04.432Z,6.87
2022-09-20T00:36:31.946Z,6.72
2022-09-20T00:39:01.095Z,9.10
2022-09-20T00:41:30.217Z,8.99
2022-09-20T00:43:57.793Z,7.45
2022-09-20T00:46:27.775Z,8.90
2022-09-20T00:48:59.902Z,6.37
2022-09-20T00:51:32.160Z,8.97
2022-09-20T00:54:04.796Z,5.95
2022-09-20T00:56:35.164Z,8.93
2022-09-20T00:59:05.413Z,8.89
2022-09-20T01:01:32.727Z,6.27
2022-09-20T01:04:05.577Z,7.25
2022-09-20T01:06:34.946Z,3.77
2022-09-20T01:09:05.789Z,7.89
2022-09-20T01:11:33.395Z,8.66
2022-09-20T01:14:00.401Z,6.58
2022-09-20T01:16:31.549Z,6.22
2022-09-20T01:19:03.378Z,6.92
2022-09-20T01:21:30.653Z,5.58
2022-09-20T01:24:22.359Z,8.67
2022-09-20T01:27:18.711Z,6.22
2022-09-20T01:30:12.137Z,8.42
2022-09-20T01:32:50.252Z,8.36
2022-09-20T01:35:21.635Z,8.36
2022-09-20T01:38:11.284Z,8.07
2022-09-20T01:41:04.426Z,8.82
2022-09-20T01:43:45.290Z,8.20
2022-09-20T01:46:31.885Z,8.74
2022-09-20T01:49:54.499Z,8.73
2022-09-20T01:52:38.828Z,8.25
2022-09-20T01:55:28.571Z,8.36
2022-09-20T01:58:14.165Z,8.86
2022-09-20T02:01:42.797Z,7.61
2022-09-20T02:04:32.174Z,8.56
2022-09-20T02:07:09.315Z,8.92
2022-09-20T02:10:09.729Z,8.87
2022-09-20T02:12:42.784Z,8.92
2022-09-20T02:15:28.475Z,8.91
2022-09-20T02:17:55.372Z,8.87
2022-09-20T02:20:50.013Z,8.81
2022-09-20T02:23:33.582Z,8.12
2022-09-20T02:26:09.480Z,8.86
2022-09-20T02:29:16.150Z,8.81
2022-09-20T02:32:03.804Z,8.21
2022-09-20T02:34:46.903Z,8.98
2022-09-20T02:37:40.522Z,8.95
2022-09-20T02:40:47.592Z,8.92
2022-09-20T02:43:41.170Z,8.89
2022-09-20T02:46:21.379Z,8.96
2022-09-20T02:49:00.994Z,7.62
2022-09-20T02:51:43.516Z,9.00
2022-09-20T02:54:37.753Z,9.02
2022-09-20T02:57:21.859Z,8.17
2022-09-20T03:00:05.505Z,4.68
2022-09-20T03:02:52.600Z,8.85
2022-09-20T03:05:31.549Z,8.90
2022-09-20T03:08:41.031Z,8.91
2022-09-20T03:11:25.563Z,7.68
2022-09-20T03:14:07.838Z,8.96
2022-09-20T03:17:13.316Z,8.97
2022-09-20T03:20:07.204Z,8.92
2022-09-20T03:22:41.806Z,8.50
2022-09-20T03:25:52.698Z,8.95
2022-09-20T03:28:56.584Z,8.85
2022-09-20T03:31:56.896Z,7.66
2022-09-20T03:34:44.285Z,8.93
2022-09-20T03:37:34.665Z,8.84
2022-09-20T03:40:10.685Z,8.87
2022-09-20T03:42:47.915Z,8.44
2022-09-20T03:45:34.336Z,8.17
2022-09-20T03:48:01.279Z,8.81
2022-09-20T03:50:53.362Z,8.83
2022-09-20T03:53:47.858Z,8.89
2022-09-20T03:56:44.189Z,8.84
2022-09-20T03:59:32.786Z,8.79
2022-09-20T04:02:49.516Z,7.87
2022-09-20T04:05:23.442Z,7.07
2022-09-20T04:08:40.883Z,8.07
2022-09-20T04:11:44.271Z,8.99
2022-09-20T04:14:25.672Z,7.29
2022-09-20T04:17:22.702Z,8.94
2022-09-20T04:19:59.981Z,7.17
2022-09-20T04:22:29.930Z,6.88
2022-09-20T04:25:05.832Z,8.70
2022-09-20T04:27:41.797Z,8.27
2022-09-20T04:30:30.137Z,7.52
2022-09-20T04:33:01.941Z,9.04
2022-09-20T04:36:24.349Z,8.99
2022-09-20T04:39:29.857Z,8.15
2022-09-20T04:42:45.384Z,9.06
2022-09-20T04:45:31.348Z,7.64
2022-09-20T04:48:26.959Z,8.94
2022-09-20T04:51:31.511Z,9.00
2022-09-20T04:54:19.937Z,9.05
2022-09-20T04:57:27.644Z,9.00
2022-09-20T05:00:03.635Z,9.09
2022-09-20T05:03:30.682Z,8.07
2022-09-20T05:06:09.705Z,9.16
2022-09-20T05:09:03.442Z,8.84
2022-09-20T05:11:57.438Z,9.05
2022-09-20T05:14:45.837Z,9.08
2022-09-20T05:17:19.643Z,9.11
2022-09-20T05:19:50.547Z,9.17
2022-09-20T05:22:32.718Z,9.29
2022-09-20T05:25:26.184Z,8.96
2022-09-20T05:28:03.285Z,9.24
2022-09-20T05:30:56.120Z,9.25
2022-09-20T05:33:38.136Z,9.29
2022-09-20T05:36:19.826Z,9.36
2022-09-20T05:38:51.096Z,9.41
2022-09-20T05:41:37.282Z,9.31
2022-09-20T05:44:24.364Z,9.32
2022-09-20T05:46:59.470Z,9.27
2022-09-20T05:49:52.937Z,7.98
2022-09-20T05:52:32.597Z,9.39
2022-09-20T05:54:59.523Z,9.52
2022-09-20T05:58:01.917Z,9.29
2022-09-20T06:00:43.515Z,7.63
2022-09-20T06:03:16.872Z,9.38
2022-09-20T06:06:10.334Z,9.38
2022-09-20T06:09:01.429Z,9.59
2022-09-20T06:12:03.251Z,9.50
2022-09-20T06:14:41.423Z,9.52
2022-09-20T06:17:14.468Z,9.53
2022-09-20T06:20:00.052Z,9.50
2022-09-20T06:22:37.090Z,7.84
2022-09-20T06:25:10.091Z,9.68
2022-09-20T06:27:41.746Z,7.12
2022-09-20T06:30:17.569Z,8.45
2022-09-20T06:33:00.270Z,9.94
2022-09-20T06:36:24.657Z,9.87
2022-09-20T06:39:49.185Z,9.67
2022-09-20T06:42:16.247Z,9.31
2022-09-20T06:44:43.560Z,9.27
2022-09-20T06:47:11.916Z,10.16
2022-09-20T06:49:39.989Z,10.06
2022-09-20T06:52:08.238Z,9.95
2022-09-20T06:54:35.301Z,9.49
2022-09-20T06:57:06.673Z,10.16
2022-09-20T06:59:33.617Z,9.95
2022-09-20T07:02:00.550Z,4.87
2022-09-20T07:04:27.458Z,10.00
2022-09-20T07:07:09.103Z,6.67
2022-09-20T07:09:36.492Z,7.45
2022-09-20T07:12:03.651Z,9.21
2022-09-20T07:14:33.367Z,10.40
2022-09-20T07:17:00.321Z,9.90
2022-09-20T07:19:27.405Z,7.88
2022-09-20T07:21:54.834Z,9.69
2022-09-20T07:24:21.762Z,8.92
2022-09-20T07:27:00.100Z,10.46
2022-09-20T07:29:27.700Z,10.58
2022-09-20T07:31:56.140Z,10.44
2022-09-20T07:34:23.147Z,6.39
2022-09-20T07:36:51.512Z,10.39
2022-09-20T07:39:19.187Z,10.61
2022-09-20T07:41:48.788Z,8.36
2022-09-20T07:44:22.554Z,2.66
2022-09-20T07:46:54.245Z,10.73
2022-09-20T07:49:22.380Z,10.86
2022-09-20T07:51:50.153Z,10.78
2022-09-20T07:54:17.712Z,9.33
2022-09-20T07:56:45.542Z,10.59
2022-09-20T07:59:13.452Z,10.50
2022-09-20T08:01:41.862Z,10.90
2022-09-20T08:04:10.438Z,10.77
2022-09-20T08:06:39.423Z,10.33
2022-09-20T08:09:10.898Z,11.38
2022-09-20T08:11:39.891Z,11.05
2022-09-20T08:14:09.223Z,11.11
2022-09-20T08:16:43.490Z,11.41
2022-09-20T08:19:25.846Z,11.56
2022-09-20T08:21:54.269Z,10.73
2022-09-20T08:24:21.974Z,10.18
2022-09-20T08:26:49.128Z,10.51
2022-09-20T08:29:16.126Z,9.95
2022-09-20T08:31:43.728Z,11.15
2022-09-20T08:34:13.160Z,5.69
2022-09-20T08:36:42.850Z,11.07
2022-09-20T08:42:11.372Z,9.00
2022-09-20T08:44:57.845Z,11.64
2022-09-20T08:47:31.956Z,10.82
2022-09-20T08:50:08.859Z,11.63
2022-09-20T08:52:39.014Z,11.63
2022-09-20T08:55:40.168Z,10.93
2022-09-20T08:58:11.176Z,11.79
2022-09-20T09:00:40.172Z,11.73
2022-09-20T09:03:12.564Z,11.57
2022-09-20T09:05:45.601Z,11.67
2022-09-20T09:08:19.346Z,11.44
2022-09-20T09:10:58.129Z,11.39
2022-09-20T09:13:34.870Z,11.32
2022-09-20T09:16:10.603Z,9.85
2022-09-20T09:18:40.961Z,11.55
2022-09-20T09:21:11.161Z,10.74
2022-09-20T09:23:45.828Z,11.70
2022-09-20T09:26:22.778Z,11.74
2022-09-20T09:29:13.302Z,9.72
2022-09-20T09:31:40.493Z,11.63
2022-09-20T09:34:24.962Z,10.54
2022-09-20T09:36:52.424Z,11.60
2022-09-20T09:39:40.872Z,11.92
2022-09-20T09:42:29.179Z,11.83
2022-09-20T09:45:18.576Z,11.79
2022-09-20T09:47:46.351Z,10.70
2022-09-20T09:50:26.061Z,11.94
2022-09-20T09:53:10.526Z,6.83
2022-09-20T09:56:00.394Z,11.88
2022-09-20T09:59:06.129Z,12.35
2022-09-20T10:01:42.219Z,9.95
2022-09-20T10:04:18.751Z,12.23
2022-09-20T10:07:23.991Z,11.92
2022-09-20T10:10:02.155Z,11.98
2022-09-20T10:12:48.527Z,11.96
2022-09-20T10:15:31.399Z,12.04
2022-09-20T10:18:25.303Z,12.41
2022-09-20T10:21:10.931Z,12.48
2022-09-20T10:24:03.164Z,12.37
2022-09-20T10:27:04.034Z,12.10
2022-09-20T10:29:53.382Z,11.98
2022-09-20T10:32:57.663Z,12.63
2022-09-20T10:35:46.325Z,12.27
2022-09-20T10:38:24.086Z,12.53
2022-09-20T10:41:31.338Z,12.58
2022-09-20T10:44:07.093Z,12.64
2022-09-20T10:47:02.624Z,12.67
2022-09-20T10:49:41.917Z,12.51
2022-09-20T10:52:20.821Z,12.56
2022-09-20T10:55:11.062Z,12.83
2022-09-20T10:57:46.865Z,12.96
2022-09-20T11:00:25.119Z,13.16
2022-09-20T11:03:08.694Z,13.19
2022-09-20T11:06:06.838Z,13.50
2022-09-20T11:08:38.588Z,12.07
2022-09-20T11:11:20.805Z,13.66
2022-09-20T11:13:50.454Z,13.69
2022-09-20T11:16:43.681Z,13.17
2022-09-20T11:19:44.896Z,13.77
2022-09-20T11:22:19.239Z,13.90
2022-09-20T11:24:55.494Z,13.70
2022-09-20T11:27:33.426Z,13.78
2022-09-20T11:30:05.613Z,13.29
2022-09-20T11:32:43.300Z,11.69
2022-09-20T11:35:15.165Z,13.56
2022-09-20T11:38:03.465Z,7.65
2022-09-20T11:40:37.203Z,11.60
2022-09-20T11:43:06.999Z,13.75
2022-09-20T11:45:35.726Z,13.63
2022-09-20T11:48:13.254Z,13.22
2022-09-20T11:50:51.566Z,12.88
2022-09-20T11:53:37.459Z,13.61
2022-09-20T11:56:21.317Z,13.52
2022-09-20T11:58:56.192Z,13.67
2022-09-20T12:01:30.451Z,13.22
2022-09-20T12:04:30.581Z,12.76
2022-09-20T12:07:05.938Z,12.18
2022-09-20T12:09:40.525Z,13.11
2022-09-20T12:12:38.160Z,13.07
2022-09-20T12:15:22.273Z,13.94
2022-09-20T12:17:50.022Z,14.13
2022-09-20T12:20:35.280Z,14.26
2022-09-20T12:23:45.459Z,14.63
2022-09-20T12:26:21.432Z,14.62
2022-09-20T12:28:52.697Z,14.33
2022-09-20T12:31:22.764Z,14.36
2022-09-20T12:34:04.869Z,14.49
2022-09-20T12:36:36.905Z,12.89
2022-09-20T12:39:22.376Z,13.45
2022-09-20T12:42:10.665Z,13.85
2022-09-20T12:44:46.290Z,13.12
2022-09-20T12:47:13.225Z,14.83
2022-09-20T12:50:04.373Z,14.80
2022-09-20T12:52:55.660Z,15.07
2022-09-20T12:55:51.828Z,15.32
2022-09-20T12:58:24.188Z,15.42
2022-09-20T13:01:14.432Z,15.41
2022-09-20T13:03:45.678Z,15.42
2022-09-20T13:06:16.769Z,15.34
2022-09-20T13:09:02.617Z,15.44
2022-09-20T13:11:47.939Z,15.42
2022-09-20T13:14:24.562Z,14.45
2022-09-20T13:16:59.328Z,12.81
2022-09-20T13:19:42.245Z,14.16
2022-09-20T13:22:20.489Z,15.33
2022-09-20T13:24:50.288Z,14.99
2022-09-20T13:27:48.200Z,15.27
2022-09-20T13:30:17.998Z,15.34
2022-09-20T13:32:45.363Z,13.91
2022-09-20T13:35:21.992Z,14.98
2022-09-20T13:37:56.604Z,12.83
2022-09-20T13:40:25.795Z,14.93
2022-09-20T13:43:19.505Z,15.16
2022-09-20T13:45:44.059Z,14.76
2022-09-20T13:48:10.995Z,10.98
2022-09-20T13:50:45.337Z,15.12
2022-09-20T13:53:33.567Z,13.87
2022-09-20T13:56:21.853Z,13.61
2022-09-20T13:58:50.324Z,14.71
2022-09-20T14:01:29.503Z,14.81
2022-09-20T14:04:05.957Z,12.83
2022-09-20T14:06:33.530Z,14.30
2022-09-20T14:09:08.361Z,14.16
2022-09-20T14:11:38.191Z,13.69
2022-09-20T14:14:05.860Z,13.19
2022-09-20T14:16:38.180Z,14.48
2022-09-20T14:19:10.322Z,14.33
2022-09-20T14:21:38.610Z,9.60
2022-09-20T14:24:30.554Z,9.61
2022-09-20T14:27:16.480Z,14.40
2022-09-20T14:29:51.305Z,11.15
2022-09-20T14:32:18.273Z,14.46
2022-09-20T14:34:57.442Z,14.33
2022-09-20T15:00:58.226Z,12.31
2022-09-20T15:03:34.486Z,12.66
2022-09-20T15:06:01.398Z,7.28
2022-09-20T15:08:28.594Z,12.00
2022-09-20T15:10:55.497Z,6.35
2022-09-20T15:13:22.721Z,10.74
2022-09-20T15:15:53.426Z,12.17
2022-09-20T15:18:23.408Z,11.39
2022-09-20T15:20:51.395Z,12.17
2022-09-20T15:23:19.079Z,12.15
2022-09-20T15:25:50.051Z,12.17
2022-09-20T15:28:18.290Z,11.48
2022-09-20T15:30:46.706Z,12.20
2022-09-20T15:33:14.889Z,11.91
2022-09-20T15:35:43.071Z,12.22
2022-09-20T15:38:12.189Z,12.21
2022-09-20T15:40:43.439Z,11.32
2022-09-20T15:43:16.986Z,12.13
2022-09-20T15:46:01.280Z,12.10
2022-09-20T15:48:31.059Z,12.08
2022-09-20T15:50:58.871Z,12.07
2022-09-20T15:53:25.812Z,10.19
2022-09-20T15:55:52.759Z,10.93
2022-09-20T15:58:19.689Z,9.27
2022-09-20T16:00:48.718Z,6.78
2022-09-20T16:03:15.672Z,11.42
2022-09-20T16:05:42.735Z,6.44
2022-09-20T16:08:09.584Z,10.09
2022-09-20T16:10:38.743Z,7.50
2022-09-20T16:13:05.663Z,11.10
2022-09-20T16:15:32.514Z,9.63
2022-09-20T16:18:17.841Z,9.08
2022-09-20T16:20:44.750Z,9.72
2022-09-20T16:23:14.174Z,8.41
2022-09-20T16:25:40.996Z,11.07
2022-09-20T16:28:07.888Z,11.07
2022-09-20T16:30:34.847Z,11.40
2022-09-20T16:33:05.789Z,10.06
2022-09-20T16:35:34.404Z,10.63
2022-09-20T16:38:01.566Z,9.89
2022-09-20T16:40:29.097Z,8.86
2022-09-20T16:42:58.902Z,8.37
2022-09-20T16:45:27.250Z,9.09
2022-09-20T16:47:58.274Z,9.72
2022-09-20T16:50:25.152Z,9.36
2022-09-20T16:52:52.762Z,6.68
2022-09-20T16:55:21.014Z,5.73
2022-09-20T16:57:51.154Z,8.85
2022-09-20T17:00:21.177Z,10.48
2022-09-20T17:02:51.474Z,10.70
2022-09-20T17:05:18.302Z,7.42
2022-09-20T17:07:46.405Z,6.38
2022-09-20T17:10:13.377Z,9.10
2022-09-20T17:12:43.617Z,10.40
2022-09-20T17:15:13.481Z,10.46
2022-09-20T17:17:40.402Z,9.35
2022-09-20T17:20:08.118Z,8.53
2022-09-20T17:22:35.116Z,9.93
2022-09-20T17:25:02.939Z,10.45
2022-09-20T17:27:29.898Z,10.13
2022-09-20T17:29:56.934Z,10.81
2022-09-20T17:32:24.415Z,10.82
2022-09-20T17:34:51.380Z,9.43
2022-09-20T17:37:18.569Z,10.53
2022-09-20T17:39:45.647Z,11.16
2022-09-20T17:42:12.618Z,9.33
2022-09-20T17:44:39.522Z,9.57
2022-09-20T17:47:06.933Z,7.20
2022-09-20T17:49:34.953Z,9.06
2022-09-20T17:52:02.092Z,10.30
2022-09-20T17:54:29.133Z,8.65
2022-09-20T17:56:56.366Z,7.75
2022-09-20T17:59:23.692Z,9.44
2022-09-20T18:01:51.690Z,10.56
2022-09-20T18:04:21.153Z,9.95
2022-09-20T18:06:50.274Z,10.61
2022-09-20T18:09:19.653Z,7.33
2022-09-20T18:11:50.111Z,10.52
2022-09-20T18:14:23.422Z,6.32
2022-09-20T18:16:58.236Z,9.58
2022-09-20T18:19:32.814Z,8.98
2022-09-20T18:22:01.480Z,10.58
2022-09-20T18:24:28.634Z,6.08
2022-09-20T18:26:56.083Z,9.01
2022-09-20T18:29:23.921Z,8.20
2022-09-20T18:31:54.697Z,10.02
2022-09-20T18:34:25.885Z,10.17
2022-09-20T18:36:57.912Z,10.44
2022-09-20T18:39:26.856Z,9.36
2022-09-20T18:41:54.528Z,10.40
2022-09-20T18:44:22.735Z,10.07
2022-09-20T18:46:53.528Z,10.24
2022-09-20T18:49:21.851Z,10.35
2022-09-20T18:51:49.871Z,10.01
2022-09-20T18:54:17.450Z,1.85
2022-09-20T18:56:46.598Z,9.33
2022-09-20T18:59:15.073Z,6.54
2022-09-20T19:01:51.154Z,10.31
2022-09-20T19:04:42.348Z,10.21
2022-09-20T19:07:28.500Z,8.86
2022-09-20T19:10:04.555Z,10.18
2022-09-20T19:12:39.561Z,10.15
2022-09-20T19:15:34.491Z,10.24
2022-09-20T19:18:25.912Z,10.11
2022-09-20T19:21:11.130Z,10.04
2022-09-20T19:23:59.917Z,9.33
2022-09-20T19:26:31.777Z,10.14
2022-09-20T19:29:00.778Z,10.17
2022-09-20T19:31:31.694Z,10.12
2022-09-20T19:34:01.386Z,10.03
2022-09-20T19:37:10.592Z,10.16
2022-09-20T19:39:42.813Z,8.61
2022-09-20T19:42:14.525Z,10.15
2022-09-20T19:44:44.113Z,10.08
2022-09-20T19:47:22.302Z,10.09
2022-09-20T19:50:00.113Z,9.07
2022-09-20T19:52:27.421Z,9.33
2022-09-20T19:54:54.757Z,8.58
2022-09-20T19:57:28.584Z,10.03
2022-09-20T19:59:56.830Z,7.92
2022-09-20T20:02:24.063Z,6.14
2022-09-20T20:04:51.771Z,8.30
2022-09-20T20:07:36.966Z,9.86
2022-09-20T20:10:13.839Z,7.58
2022-09-20T20:12:56.178Z,9.75
2022-09-20T20:15:29.238Z,9.71
2022-09-20T20:18:21.138Z,8.11
2022-09-20T20:20:55.003Z,9.35
2022-09-20T20:23:58.231Z,9.70
2022-09-20T20:26:26.378Z,8.98
2022-09-20T20:28:53.815Z,9.65
2022-09-20T20:31:21.656Z,8.36
2022-09-20T20:33:49.479Z,9.55
2022-09-20T20:36:17.481Z,8.51
2022-09-20T20:38:50.038Z,6.75
2022-09-20T20:41:20.691Z,9.09
2022-09-20T20:43:48.999Z,9.46
2022-09-20T20:46:18.943Z,1.20
2022-09-20T20:48:47.602Z,7.12
2022-09-20T20:51:17.736Z,9.46
2022-09-20T20:53:50.551Z,8.30
2022-09-20T20:56:22.930Z,7.87
2022-09-20T20:58:50.169Z,9.54
2022-09-20T21:01:22.908Z,8.34
2022-09-20T21:03:54.905Z,9.47
2022-09-20T21:06:25.427Z,9.08
2022-09-20T21:08:53.327Z,9.44
2022-09-20T21:11:23.679Z,9.33
2022-09-20T21:13:55.937Z,9.40
2022-09-20T21:16:26.246Z,9.22
2022-09-20T21:18:53.652Z,6.02
2022-09-20T21:21:27.067Z,7.60
2022-09-20T21:23:56.239Z,4.39
2022-09-20T21:26:24.698Z,9.32
2022-09-20T21:28:59.312Z,9.25
2022-09-20T21:31:28.873Z,9.31
2022-09-20T21:33:56.535Z,8.19
2022-09-20T21:36:28.477Z,9.18
2022-09-20T21:38:56.123Z,8.35
2022-09-20T21:41:25.773Z,9.22
2022-09-20T21:43:57.564Z,9.19
2022-09-20T21:46:30.097Z,6.63
2022-09-20T21:48:58.846Z,9.16
2022-09-20T21:51:27.368Z,7.79
2022-09-20T21:53:58.561Z,8.81
2022-09-20T21:56:27.802Z,8.74
2022-09-20T21:58:55.681Z,8.02
2022-09-20T22:01:24.771Z,9.08
2022-09-20T22:03:57.849Z,9.09
2022-09-20T22:06:34.098Z,6.81
2022-09-20T22:09:06.475Z,8.50
2022-09-20T22:11:42.014Z,9.12
2022-09-20T22:14:10.546Z,8.23
2022-09-20T22:16:39.220Z,9.01
2022-09-20T22:19:08.179Z,9.07
2022-09-20T22:21:37.336Z,7.90
2022-09-20T22:24:07.581Z,8.65
2022-09-20T22:26:37.767Z,8.53
2022-09-20T22:29:05.433Z,9.00
2022-09-20T22:31:34.947Z,7.34
2022-09-20T22:34:04.474Z,8.59
2022-09-20T22:36:36.835Z,7.53
2022-09-20T22:39:07.663Z,7.86
2022-09-20T22:41:34.797Z,8.99
2022-09-20T22:44:02.406Z,8.71
2022-09-20T22:46:30.612Z,7.46
2022-09-20T22:48:57.939Z,8.65
2022-09-20T22:51:31.698Z,8.88
2022-09-20T22:53:58.557Z,7.97
2022-09-20T22:56:30.778Z,8.90
2022-09-20T22:59:03.926Z,8.89
2022-09-20T23:01:33.566Z,7.21
2022-09-20T23:04:08.437Z,8.85
2022-09-20T23:06:39.135Z,5.02
2022-09-20T23:09:08.630Z,8.86
2022-09-20T23:11:36.310Z,7.90
2022-09-20T23:14:07.486Z,8.89
2022-09-20T23:16:36.897Z,7.63
2022-09-20T23:19:06.290Z,8.42
2022-09-20T23:21:34.305Z,7.90
2022-09-20T23:24:04.373Z,6.43
2022-09-20T23:26:34.702Z,8.86
2022-09-20T23:29:07.557Z,7.20
2022-09-20T23:31:36.787Z,8.81
2022-09-20T23:34:06.092Z,8.45
2022-09-20T23:36:35.719Z,8.79
2022-09-20T23:39:02.902Z,8.79
2022-09-20T23:41:30.384Z,8.83
2022-09-20T23:43:58.395Z,8.78
2022-09-20T23:46:26.932Z,2.72
2022-09-20T23:48:54.422Z,8.83
2022-09-20T23:51:23.986Z,8.80
2022-09-20T23:53:52.399Z,4.15
2022-09-20T23:56:20.740Z,7.46
2022-09-20T23:58:48.848Z,8.44
